Главная страница
METAR-TAF:

METAR-TAF

Аэропорты :

Brookhaven Airport

Шерли, Нью-Йорк, США

широта: 40-49-18N, долгота: 072-52-08W, высота над уровнем моря: 25 м

Текущие метеонаблюдения

Эта сводка был подготовлена 18 минут назад, в 09:56 UTC
Штиль
Температура 11°C
Влажность 87%
Давление 1011 hPa
Видимость: 9.7 км
Рассеянная облачность на высоте 4100 фута
Сплошная облачность на высоте 4700 фута
дождь, дымка

METAR: KHWV 260956Z AUTO 00000KT 6SM RA BR BKN041 OVC047 11/09 A2984 RMK AO2 SLP106 P0005 T01110089

Время: 06:14 (10:14 UTC)


TAF: отсутствует

Метеонаблюдения и прогнозы для более 4000 аэропортов (сводки METAR и TAF).

Имеющиеся станции представлены на карте желтыми и красными точками.

Чтобы увидеть название станции, наведите на нее мышь.

Затем щелкните, чтобы увидеть метеонаблюдения и метеопрогнозы.

Управление картой: чтобы увеличить масштаб, щелкните зеленые кнопки с черным крестиком; чтобы уменьшить масштаб, щелкните зеленую кнопку с тире; для просмотра соседних карт щелкайте зеленые стрелки.


METAR-TAF: